Sugar Hill, New Hampshire
Current Conditions -  °F | °C
As of 6:15 AM on Friday 24 Oct 2014 (Local Time) from KHIE Reporting Station
Overcast Overcast  
Wind Chill: 45°   Ceiling: 700
Heat Index: 45°   Visibility: 10mi
Dew Point: 42°   Wind: 0mph
Humidity: 90%   Direction: NA
Pressure: 29.75"   Gusts: NA
Location:  44.22°N, 71.8°W
Report Text: KHIE 241015Z AUTO 00000KT 10SM BKN007 OVC013 07/06 A2975 RMK AO2 CIG 006V011 T00720056 $
Loading
Personal Weather Stations






























Interactive Weather Map
Tropical Storm Tracking
New forecast layout! Learn more

10-Day Weather Forecast

Advertisements
Track Severe Weather on mobile